createdAt,value
2023-05-08T00:02:44.560Z,58.49
2023-05-08T00:06:51.750Z,58.61
2023-05-08T00:10:54.837Z,58.44
2023-05-08T00:14:58.439Z,58.64
2023-05-08T00:19:02.378Z,58.94
2023-05-08T00:23:06.866Z,59.11
2023-05-08T00:27:10.125Z,59.16
2023-05-08T00:31:14.372Z,59.34
2023-05-08T00:35:17.776Z,59.76
2023-05-08T00:39:22.765Z,59.45
2023-05-08T00:43:28.581Z,60.07
2023-05-08T00:47:33.554Z,60.66
2023-05-08T00:51:37.206Z,60.44
2023-05-08T00:55:42.420Z,60.41
2023-05-08T00:59:47.816Z,60.72
2023-05-08T01:03:52.000Z,60.30
2023-05-08T01:07:55.412Z,59.96
2023-05-08T01:12:10.310Z,60.12
2023-05-08T01:16:17.752Z,60.44
2023-05-08T01:20:31.784Z,60.04
2023-05-08T01:25:06.463Z,60.29
2023-05-08T01:29:45.571Z,59.15
2023-05-08T01:33:57.019Z,59.54
2023-05-08T01:38:09.959Z,59.71
2023-05-08T01:42:20.682Z,58.82
2023-05-08T01:46:27.515Z,59.49
2023-05-08T01:50:38.384Z,58.77
2023-05-08T01:54:48.297Z,59.17
2023-05-08T01:58:54.581Z,59.02
2023-05-08T02:02:59.230Z,59.09
2023-05-08T02:07:05.277Z,59.31
2023-05-08T02:11:09.798Z,59.10
2023-05-08T02:15:15.523Z,59.04
2023-05-08T02:19:20.620Z,58.92
2023-05-08T02:23:28.458Z,58.34
2023-05-08T02:27:35.572Z,58.96
2023-05-08T02:31:40.613Z,58.73
2023-05-08T02:35:46.530Z,58.55
2023-05-08T02:39:55.487Z,58.46
2023-05-08T02:43:59.637Z,58.51
2023-05-08T02:48:12.623Z,59.01
2023-05-08T02:52:18.368Z,57.61
2023-05-08T02:56:36.355Z,57.96
2023-05-08T03:00:45.720Z,58.16
2023-05-08T03:04:55.260Z,58.33
2023-05-08T03:09:04.821Z,58.07
2023-05-08T03:13:12.184Z,58.66
2023-05-08T03:17:19.744Z,58.61
2023-05-08T03:21:27.488Z,58.40
2023-05-08T03:25:34.380Z,58.47
2023-05-08T03:29:41.161Z,58.35
2023-05-08T03:33:46.089Z,58.49
2023-05-08T03:37:49.664Z,58.74
2023-05-08T03:41:53.115Z,58.80
2023-05-08T03:46:00.455Z,58.32
2023-05-08T03:50:05.086Z,58.68
2023-05-08T03:54:08.274Z,58.19
2023-05-08T03:58:21.835Z,58.35
2023-05-08T04:02:34.938Z,58.45
2023-05-08T04:06:50.084Z,58.66
2023-05-08T04:11:04.832Z,58.50
2023-05-08T04:15:12.860Z,58.83
2023-05-08T04:19:23.212Z,58.64
2023-05-08T04:23:27.643Z,58.67
2023-05-08T04:27:31.840Z,58.16
2023-05-08T04:31:38.137Z,58.08
2023-05-08T04:35:42.678Z,58.23
2023-05-08T04:39:46.328Z,58.40
2023-05-08T04:43:50.838Z,58.22
2023-05-08T04:47:54.196Z,58.19
2023-05-08T04:51:58.976Z,58.19
2023-05-08T04:56:03.664Z,58.26
2023-05-08T05:00:11.325Z,57.93
2023-05-08T05:04:14.648Z,58.06
2023-05-08T05:08:19.301Z,57.85
2023-05-08T05:12:23.065Z,57.58
2023-05-08T05:16:26.689Z,57.61
2023-05-08T05:20:30.182Z,57.30
2023-05-08T05:24:36.550Z,57.13
2023-05-08T05:28:40.332Z,57.17
2023-05-08T05:32:44.269Z,56.91
2023-05-08T05:36:47.467Z,57.06
2023-05-08T05:40:52.486Z,57.28
2023-05-08T05:44:56.836Z,56.84
2023-05-08T05:49:00.330Z,56.67
2023-05-08T05:53:03.807Z,56.68
2023-05-08T05:57:09.197Z,56.60
2023-05-08T06:01:13.452Z,56.44
2023-05-08T06:05:17.135Z,56.65
2023-05-08T06:09:20.845Z,56.21
2023-05-08T06:13:26.174Z,56.09
2023-05-08T06:17:29.733Z,56.14
2023-05-08T06:21:33.158Z,56.44
2023-05-08T06:25:36.728Z,55.55
2023-05-08T06:29:41.629Z,55.24
2023-05-08T06:33:45.145Z,55.00
2023-05-08T06:37:48.659Z,54.95
2023-05-08T06:41:52.048Z,54.38
2023-05-08T06:45:56.650Z,53.87
2023-05-08T06:50:00.169Z,53.73
2023-05-08T06:54:05.833Z,53.26
2023-05-08T06:58:09.539Z,53.67
2023-05-08T07:02:16.606Z,52.92
2023-05-08T07:06:20.011Z,52.64
2023-05-08T07:10:23.871Z,52.87
2023-05-08T07:14:27.477Z,52.53
2023-05-08T07:18:32.612Z,52.07
2023-05-08T07:22:35.981Z,51.67
2023-05-08T07:26:39.688Z,51.04
2023-05-08T07:30:42.907Z,51.01
2023-05-08T07:34:48.820Z,51.17
2023-05-08T07:38:52.561Z,51.42
2023-05-08T07:42:57.550Z,51.32
2023-05-08T07:47:01.448Z,51.04
2023-05-08T07:51:07.078Z,49.97
2023-05-08T07:55:11.260Z,50.38
2023-05-08T07:59:14.958Z,49.88
2023-05-08T08:03:18.589Z,50.04
2023-05-08T08:07:23.387Z,49.39
2023-05-08T08:11:27.154Z,49.64
2023-05-08T08:15:30.618Z,49.01
2023-05-08T08:19:34.334Z,47.58
2023-05-08T08:23:39.801Z,47.73
2023-05-08T08:27:43.029Z,47.18
2023-05-08T08:31:46.793Z,47.88
2023-05-08T08:35:50.651Z,46.91
2023-05-08T08:39:56.377Z,46.68
2023-05-08T08:44:01.125Z,46.96
2023-05-08T08:48:06.882Z,47.83
2023-05-08T08:52:18.155Z,47.48
2023-05-08T08:56:25.009Z,47.05
2023-05-08T09:00:32.065Z,45.01
2023-05-08T09:04:35.649Z,44.72
2023-05-08T09:08:39.674Z,43.31
2023-05-08T09:12:45.378Z,44.91
2023-05-08T09:16:49.156Z,43.49
2023-05-08T09:20:52.561Z,43.54
2023-05-08T09:24:59.038Z,43.76
2023-05-08T09:29:18.528Z,45.25
2023-05-08T09:33:22.844Z,43.20
2023-05-08T09:37:27.590Z,42.93
2023-05-08T09:41:31.365Z,40.76
2023-05-08T09:45:39.113Z,40.38
2023-05-08T09:49:57.374Z,41.31
2023-05-08T09:54:04.344Z,41.22
2023-05-08T09:58:07.930Z,40.60
2023-05-08T10:02:17.708Z,40.86
2023-05-08T10:06:22.384Z,38.45
2023-05-08T10:10:29.422Z,39.01
2023-05-08T10:14:32.803Z,37.86
2023-05-08T10:18:41.025Z,38.67
2023-05-08T10:22:45.923Z,38.25
2023-05-08T10:27:07.037Z,37.84
2023-05-08T10:31:14.175Z,36.88
2023-05-08T10:35:20.604Z,37.54
2023-05-08T10:39:25.424Z,36.90
2023-05-08T10:43:31.315Z,37.66
2023-05-08T10:47:46.727Z,37.69
2023-05-08T10:52:01.450Z,36.38
2023-05-08T10:56:04.839Z,37.04
2023-05-08T11:00:09.355Z,36.77
2023-05-08T11:04:21.924Z,36.41
2023-05-08T11:08:28.960Z,36.07
2023-05-08T11:12:34.132Z,36.25
2023-05-08T11:17:07.021Z,37.11
2023-05-08T11:21:16.674Z,37.46
2023-05-08T11:25:45.003Z,36.92
2023-05-08T11:30:25.905Z,36.81
2023-05-08T11:34:53.126Z,37.13
2023-05-08T11:39:12.763Z,35.71
2023-05-08T11:43:45.062Z,36.09
2023-05-08T11:47:48.391Z,34.32
2023-05-08T11:51:55.321Z,33.74
2023-05-08T11:55:59.978Z,33.02
2023-05-08T12:00:09.915Z,34.27
2023-05-08T12:04:15.014Z,32.64
2023-05-08T12:08:21.195Z,33.91
2023-05-08T12:12:24.453Z,33.03
2023-05-08T12:16:29.168Z,34.09
2023-05-08T12:20:33.924Z,35.70
2023-05-08T12:24:37.742Z,34.92
2023-05-08T12:28:42.896Z,33.74
2023-05-08T12:32:48.634Z,34.02
2023-05-08T12:37:03.644Z,34.82
2023-05-08T12:41:09.136Z,34.35
2023-05-08T12:45:19.173Z,33.97
2023-05-08T12:49:29.208Z,34.87
2023-05-08T12:53:34.224Z,33.61
2023-05-08T12:57:38.906Z,34.35
2023-05-08T13:01:42.398Z,34.04
2023-05-08T13:05:47.735Z,33.21
2023-05-08T13:10:03.724Z,34.56
2023-05-08T13:14:07.519Z,34.74
2023-05-08T13:18:11.110Z,34.97
2023-05-08T13:22:15.825Z,34.51
2023-05-08T13:26:19.472Z,35.34
2023-05-08T13:30:24.353Z,35.06
2023-05-08T13:34:27.618Z,35.60
2023-05-08T13:38:35.015Z,34.08
2023-05-08T13:42:38.260Z,34.98
2023-05-08T13:46:41.950Z,34.88
2023-05-08T13:50:45.219Z,34.14
2023-05-08T13:54:50.386Z,34.24
2023-05-08T13:58:54.450Z,34.92
2023-05-08T14:02:58.189Z,35.22
2023-05-08T14:07:01.848Z,36.25
2023-05-08T14:11:06.962Z,35.52
2023-05-08T14:15:12.242Z,35.66
2023-05-08T14:19:16.563Z,36.77
2023-05-08T14:23:20.342Z,35.61
2023-05-08T14:27:25.780Z,35.33
2023-05-08T14:31:29.091Z,34.47
2023-05-08T14:35:33.288Z,35.03
2023-05-08T14:39:36.589Z,35.55
2023-05-08T14:43:42.990Z,34.64
2023-05-08T14:47:46.633Z,35.59
2023-05-08T14:51:52.294Z,34.91
2023-05-08T14:55:56.351Z,35.77
2023-05-08T15:00:01.510Z,35.95
2023-05-08T15:04:04.649Z,35.62
2023-05-08T15:08:09.008Z,36.46
2023-05-08T15:12:12.082Z,36.09
2023-05-08T15:16:17.123Z,36.21
2023-05-08T15:20:21.150Z,36.28
2023-05-08T15:24:25.477Z,37.15
2023-05-08T15:28:29.228Z,36.77
2023-05-08T15:32:35.173Z,37.17
2023-05-08T15:36:38.472Z,37.87
2023-05-08T15:40:42.010Z,37.03
2023-05-08T15:48:53.071Z,37.49
2023-05-08T15:52:55.951Z,37.68
2023-05-08T15:56:59.168Z,37.95
2023-05-08T16:01:02.647Z,38.25
2023-05-08T16:05:08.746Z,39.16
2023-05-08T16:09:11.849Z,38.52
2023-05-08T16:13:15.427Z,38.36
2023-05-08T16:17:18.663Z,38.65
2023-05-08T16:21:23.521Z,38.86
2023-05-08T16:25:27.735Z,39.89
2023-05-08T16:29:31.161Z,39.82
2023-05-08T16:33:34.316Z,40.31
2023-05-08T16:37:43.637Z,40.65
2023-05-08T16:45:52.241Z,40.13
2023-05-08T16:49:55.562Z,41.19
2023-05-08T16:54:00.219Z,41.55
2023-05-08T16:58:04.635Z,41.81
2023-05-08T17:02:09.132Z,41.75
2023-05-08T17:06:12.466Z,42.01
2023-05-08T17:10:17.730Z,42.24
2023-05-08T17:14:21.055Z,42.50
2023-05-08T17:18:25.039Z,42.63
2023-05-08T17:22:30.843Z,43.10
2023-05-08T17:26:35.649Z,43.30
2023-05-08T17:30:38.890Z,42.74
2023-05-08T17:34:42.484Z,43.40
2023-05-08T17:38:46.595Z,43.95
2023-05-08T17:42:51.802Z,43.63
2023-05-08T17:46:55.723Z,43.67
2023-05-08T17:51:00.493Z,43.82
2023-05-08T17:55:04.057Z,43.94
2023-05-08T17:59:09.466Z,43.84
2023-05-08T18:03:12.934Z,44.16
2023-05-08T18:07:16.819Z,44.76
2023-05-08T18:11:21.592Z,45.00
2023-05-08T18:15:26.727Z,45.64
2023-05-08T18:19:30.596Z,45.26
2023-05-08T18:23:33.731Z,45.42
2023-05-08T18:27:37.494Z,45.50
2023-05-08T18:31:42.236Z,45.61
2023-05-08T18:35:46.100Z,46.08
2023-05-08T18:39:49.434Z,46.33
2023-05-08T18:43:53.148Z,46.25
2023-05-08T18:47:58.210Z,45.82
2023-05-08T18:52:01.746Z,46.04
2023-05-08T18:56:05.582Z,46.04
2023-05-08T19:00:10.721Z,46.44
2023-05-08T19:04:15.733Z,46.24
2023-05-08T19:08:19.522Z,45.87
2023-05-08T19:12:23.477Z,45.83
2023-05-08T19:16:28.999Z,45.79
2023-05-08T19:20:34.821Z,46.21
2023-05-08T19:24:38.347Z,46.47
2023-05-08T19:28:42.315Z,46.67
2023-05-08T19:32:47.795Z,46.52
2023-05-08T19:36:52.910Z,46.99
2023-05-08T19:40:58.146Z,46.92
2023-05-08T19:45:01.919Z,46.80
2023-05-08T19:49:05.692Z,47.09
2023-05-08T19:53:11.627Z,47.15
2023-05-08T19:57:15.766Z,46.94
2023-05-08T20:01:19.499Z,47.28
2023-05-08T20:05:23.667Z,48.16
2023-05-08T20:09:28.406Z,47.78
2023-05-08T20:13:33.307Z,47.65
2023-05-08T20:17:37.021Z,47.24
2023-05-08T20:21:41.448Z,47.49
2023-05-08T20:25:47.929Z,47.52
2023-05-08T20:29:51.520Z,47.71
2023-05-08T20:33:55.242Z,47.79
2023-05-08T20:37:58.819Z,48.16
2023-05-08T20:42:04.234Z,48.13
2023-05-08T20:46:07.736Z,48.03
2023-05-08T20:50:12.417Z,48.48
2023-05-08T20:54:16.396Z,48.57
2023-05-08T20:58:22.944Z,48.81
2023-05-08T21:02:26.284Z,48.57
2023-05-08T21:06:30.779Z,49.13
2023-05-08T21:10:34.321Z,48.65
2023-05-08T21:14:39.734Z,49.18
2023-05-08T21:18:43.243Z,49.03
2023-05-08T21:22:47.795Z,49.16
2023-05-08T21:26:50.930Z,49.36
2023-05-08T21:30:56.548Z,49.04
2023-05-08T21:34:59.848Z,49.19
2023-05-08T21:39:03.935Z,48.29
2023-05-08T21:43:07.703Z,48.46
2023-05-08T21:47:12.941Z,47.65
2023-05-08T21:51:16.099Z,47.60
2023-05-08T21:55:20.368Z,47.40
2023-05-08T21:59:23.341Z,47.08
2023-05-08T22:03:28.521Z,46.76
2023-05-08T22:07:31.765Z,46.53
2023-05-08T22:11:35.688Z,46.77
2023-05-08T22:15:38.983Z,46.55
2023-05-08T22:19:43.681Z,46.52
2023-05-08T22:23:47.132Z,46.77
2023-05-08T22:27:51.140Z,46.83
2023-05-08T22:31:54.398Z,46.77
2023-05-08T22:35:59.868Z,46.85
2023-05-08T22:40:03.397Z,46.90
2023-05-08T22:44:07.331Z,46.63
2023-05-08T22:48:10.571Z,47.22
2023-05-08T22:52:15.669Z,47.46
2023-05-08T22:56:19.159Z,47.05
2023-05-08T23:00:23.702Z,47.43
2023-05-08T23:04:27.099Z,47.29
2023-05-08T23:08:32.597Z,47.16
2023-05-08T23:12:35.633Z,47.74
2023-05-08T23:16:39.552Z,47.49
2023-05-08T23:20:42.719Z,47.79
2023-05-08T23:24:48.027Z,47.59
2023-05-08T23:28:51.219Z,47.89
2023-05-08T23:32:55.265Z,47.93
2023-05-08T23:36:58.746Z,47.76
2023-05-08T23:41:04.100Z,47.98
2023-05-08T23:45:08.971Z,48.20
2023-05-08T23:49:12.990Z,48.16
2023-05-08T23:53:16.721Z,48.53
2023-05-08T23:57:22.129Z,47.92
